METAR Data
IDs: Format: Raw Decoded Include TAF

Data at: 2059 UTC 26 May 2019

METAR for:GCLA (La Palma Arpt, --, CR)
Text:GCLA 262030Z AUTO 02012KT 350V060 9999 SCT028 20/15 Q1017
Temperature: 20.0°C ( 68°F)
Dewpoint: 15.0°C ( 59°F) [RH = 73%]
Pressure (altimeter):30.03 inches Hg (1017.0 mb)
Winds:from the NNE (20 degrees) at 14 MPH (12 knots; 6.2 m/s)
Visibility:6 or more sm (10+ km)
Ceiling:at least 12,000 feet AGL
Clouds: scattered clouds at 2800 feet AGL